sensor_id;sensor_type;location;lat;lon;timestamp;P1;durP1;ratioP1;P2;durP2;ratioP2
44516;SDS011;30223;17.182;-96.766;2023-04-03T00:00:31;7.93;;;7.20;;
44516;SDS011;30223;17.182;-96.766;2023-04-03T00:02:58;9.85;;;6.75;;
44516;SDS011;30223;17.182;-96.766;2023-04-03T00:05:25;7.28;;;6.57;;
44516;SDS011;30223;17.182;-96.766;2023-04-03T00:07:52;10.65;;;6.10;;
44516;SDS011;30223;17.182;-96.766;2023-04-03T00:10:29;6.75;;;5.53;;
44516;SDS011;30223;17.182;-96.766;2023-04-03T00:12:56;7.15;;;5.10;;
44516;SDS011;30223;17.182;-96.766;2023-04-03T00:15:23;5.82;;;5.30;;
44516;SDS011;30223;17.182;-96.766;2023-04-03T00:17:50;5.97;;;5.10;;
44516;SDS011;30223;17.182;-96.766;2023-04-03T00:20:17;6.53;;;5.15;;
44516;SDS011;30223;17.182;-96.766;2023-04-03T00:22:44;6.38;;;5.45;;
44516;SDS011;30223;17.182;-96.766;2023-04-03T00:25:11;10.90;;;5.55;;
44516;SDS011;30223;17.182;-96.766;2023-04-03T00:27:39;10.75;;;5.30;;
44516;SDS011;30223;17.182;-96.766;2023-04-03T00:30:07;8.37;;;6.07;;
44516;SDS011;30223;17.182;-96.766;2023-04-03T00:32:38;9.18;;;5.72;;
44516;SDS011;30223;17.182;-96.766;2023-04-03T00:35:08;8.57;;;5.00;;
44516;SDS011;30223;17.182;-96.766;2023-04-03T00:37:36;8.48;;;4.75;;
44516;SDS011;30223;17.182;-96.766;2023-04-03T00:40:03;11.07;;;5.60;;
44516;SDS011;30223;17.182;-96.766;2023-04-03T00:42:31;10.15;;;5.07;;
44516;SDS011;30223;17.182;-96.766;2023-04-03T00:47:29;7.50;;;4.93;;
44516;SDS011;30223;17.182;-96.766;2023-04-03T00:49:57;7.32;;;5.80;;
44516;SDS011;30223;17.182;-96.766;2023-04-03T00:52:25;7.82;;;4.97;;
44516;SDS011;30223;17.182;-96.766;2023-04-03T00:54:57;9.00;;;5.22;;
44516;SDS011;30223;17.182;-96.766;2023-04-03T00:57:27;5.75;;;5.00;;
44516;SDS011;30223;17.182;-96.766;2023-04-03T00:59:59;7.35;;;5.55;;
44516;SDS011;30223;17.182;-96.766;2023-04-03T01:02:30;10.70;;;5.35;;
44516;SDS011;30223;17.182;-96.766;2023-04-03T01:04:57;8.45;;;6.32;;
44516;SDS011;30223;17.182;-96.766;2023-04-03T01:07:28;6.68;;;5.35;;
44516;SDS011;30223;17.182;-96.766;2023-04-03T01:09:57;9.55;;;5.68;;
44516;SDS011;30223;17.182;-96.766;2023-04-03T01:12:31;8.30;;;5.43;;
44516;SDS011;30223;17.182;-96.766;2023-04-03T01:15:08;19.55;;;5.53;;
44516;SDS011;30223;17.182;-96.766;2023-04-03T01:17:41;12.05;;;6.63;;
44516;SDS011;30223;17.182;-96.766;2023-04-03T01:28:04;9.98;;;5.85;;
44516;SDS011;30223;17.182;-96.766;2023-04-03T01:30:34;8.25;;;5.40;;
44516;SDS011;30223;17.182;-96.766;2023-04-03T01:33:07;9.68;;;5.88;;
44516;SDS011;30223;17.182;-96.766;2023-04-03T01:35:33;9.60;;;5.70;;
44516;SDS011;30223;17.182;-96.766;2023-04-03T01:38:00;9.30;;;5.55;;
44516;SDS011;30223;17.182;-96.766;2023-04-03T01:40:28;10.95;;;6.25;;
44516;SDS011;30223;17.182;-96.766;2023-04-03T01:42:57;8.32;;;4.95;;
44516;SDS011;30223;17.182;-96.766;2023-04-03T01:45:38;7.30;;;5.50;;
44516;SDS011;30223;17.182;-96.766;2023-04-03T01:48:14;11.75;;;6.50;;
44516;SDS011;30223;17.182;-96.766;2023-04-03T01:50:43;8.18;;;5.75;;
44516;SDS011;30223;17.182;-96.766;2023-04-03T01:53:21;8.23;;;5.73;;
44516;SDS011;30223;17.182;-96.766;2023-04-03T01:55:54;5.95;;;4.60;;
44516;SDS011;30223;17.182;-96.766;2023-04-03T02:01:04;7.97;;;5.50;;
44516;SDS011;30223;17.182;-96.766;2023-04-03T02:03:31;9.75;;;5.22;;
44516;SDS011;30223;17.182;-96.766;2023-04-03T02:06:03;10.20;;;5.00;;
44516;SDS011;30223;17.182;-96.766;2023-04-03T02:08:29;5.85;;;5.22;;
44516;SDS011;30223;17.182;-96.766;2023-04-03T02:10:56;8.73;;;5.63;;
44516;SDS011;30223;17.182;-96.766;2023-04-03T02:13:23;7.43;;;6.07;;
44516;SDS011;30223;17.182;-96.766;2023-04-03T02:15:50;9.90;;;5.43;;
44516;SDS011;30223;17.182;-96.766;2023-04-03T02:18:17;7.22;;;5.07;;
44516;SDS011;30223;17.182;-96.766;2023-04-03T02:20:44;9.45;;;5.55;;
44516;SDS011;30223;17.182;-96.766;2023-04-03T02:23:14;8.95;;;5.57;;
44516;SDS011;30223;17.182;-96.766;2023-04-03T02:25:40;6.80;;;4.63;;
44516;SDS011;30223;17.182;-96.766;2023-04-03T02:28:07;8.65;;;4.97;;
44516;SDS011;30223;17.182;-96.766;2023-04-03T02:30:34;10.32;;;5.18;;
44516;SDS011;30223;17.182;-96.766;2023-04-03T02:33:01;8.02;;;5.55;;
44516;SDS011;30223;17.182;-96.766;2023-04-03T02:35:27;10.50;;;4.95;;
44516;SDS011;30223;17.182;-96.766;2023-04-03T02:37:55;7.40;;;5.10;;
44516;SDS011;30223;17.182;-96.766;2023-04-03T02:40:21;12.25;;;6.30;;
44516;SDS011;30223;17.182;-96.766;2023-04-03T02:42:48;8.20;;;5.93;;
44516;SDS011;30223;17.182;-96.766;2023-04-03T02:45:15;5.82;;;5.25;;
44516;SDS011;30223;17.182;-96.766;2023-04-03T02:47:42;13.73;;;6.00;;
44516;SDS011;30223;17.182;-96.766;2023-04-03T02:50:09;10.10;;;5.18;;
44516;SDS011;30223;17.182;-96.766;2023-04-03T02:52:36;6.80;;;5.18;;
44516;SDS011;30223;17.182;-96.766;2023-04-03T02:55:05;10.05;;;5.07;;
44516;SDS011;30223;17.182;-96.766;2023-04-03T02:57:39;8.52;;;5.35;;
44516;SDS011;30223;17.182;-96.766;2023-04-03T03:00:07;9.50;;;5.32;;
44516;SDS011;30223;17.182;-96.766;2023-04-03T03:02:35;9.48;;;5.28;;
44516;SDS011;30223;17.182;-96.766;2023-04-03T03:05:03;9.37;;;5.80;;
44516;SDS011;30223;17.182;-96.766;2023-04-03T03:07:30;8.75;;;4.85;;
44516;SDS011;30223;17.182;-96.766;2023-04-03T03:09:57;6.28;;;5.47;;
44516;SDS011;30223;17.182;-96.766;2023-04-03T03:12:24;11.30;;;5.35;;
44516;SDS011;30223;17.182;-96.766;2023-04-03T03:14:51;10.90;;;5.43;;
44516;SDS011;30223;17.182;-96.766;2023-04-03T03:17:18;9.40;;;5.03;;
44516;SDS011;30223;17.182;-96.766;2023-04-03T03:19:45;9.30;;;5.30;;
44516;SDS011;30223;17.182;-96.766;2023-04-03T03:22:11;7.25;;;3.97;;
44516;SDS011;30223;17.182;-96.766;2023-04-03T03:24:38;8.00;;;5.22;;
44516;SDS011;30223;17.182;-96.766;2023-04-03T03:27:05;10.93;;;4.53;;
44516;SDS011;30223;17.182;-96.766;2023-04-03T03:29:32;7.43;;;4.60;;
44516;SDS011;30223;17.182;-96.766;2023-04-03T03:31:58;8.07;;;4.43;;
44516;SDS011;30223;17.182;-96.766;2023-04-03T03:34:25;6.53;;;4.03;;
44516;SDS011;30223;17.182;-96.766;2023-04-03T03:36:52;7.28;;;4.25;;
44516;SDS011;30223;17.182;-96.766;2023-04-03T03:39:19;5.78;;;5.03;;
44516;SDS011;30223;17.182;-96.766;2023-04-03T03:41:46;6.47;;;3.97;;
44516;SDS011;30223;17.182;-96.766;2023-04-03T03:44:15;4.25;;;3.50;;
44516;SDS011;30223;17.182;-96.766;2023-04-03T03:46:41;6.63;;;4.00;;
44516;SDS011;30223;17.182;-96.766;2023-04-03T03:49:08;6.38;;;4.75;;
44516;SDS011;30223;17.182;-96.766;2023-04-03T03:51:36;4.97;;;4.15;;
44516;SDS011;30223;17.182;-96.766;2023-04-03T03:54:03;4.63;;;3.83;;
44516;SDS011;30223;17.182;-96.766;2023-04-03T03:56:31;6.03;;;4.03;;
44516;SDS011;30223;17.182;-96.766;2023-04-03T03:58:58;8.18;;;4.63;;
44516;SDS011;30223;17.182;-96.766;2023-04-03T04:01:25;7.38;;;4.88;;
44516;SDS011;30223;17.182;-96.766;2023-04-03T04:03:52;6.07;;;3.95;;
44516;SDS011;30223;17.182;-96.766;2023-04-03T04:06:20;6.18;;;5.00;;
44516;SDS011;30223;17.182;-96.766;2023-04-03T04:08:47;6.47;;;4.15;;
44516;SDS011;30223;17.182;-96.766;2023-04-03T04:11:13;7.75;;;4.60;;
44516;SDS011;30223;17.182;-96.766;2023-04-03T04:13:40;5.28;;;4.13;;
44516;SDS011;30223;17.182;-96.766;2023-04-03T04:16:07;5.60;;;4.85;;
44516;SDS011;30223;17.182;-96.766;2023-04-03T04:18:35;7.13;;;4.90;;
44516;SDS011;30223;17.182;-96.766;2023-04-03T04:21:02;10.32;;;5.10;;
44516;SDS011;30223;17.182;-96.766;2023-04-03T04:23:28;6.70;;;4.47;;
44516;SDS011;30223;17.182;-96.766;2023-04-03T04:25:56;9.48;;;4.90;;
44516;SDS011;30223;17.182;-96.766;2023-04-03T04:28:22;7.93;;;5.63;;
44516;SDS011;30223;17.182;-96.766;2023-04-03T04:30:49;6.38;;;4.78;;
44516;SDS011;30223;17.182;-96.766;2023-04-03T04:33:16;7.28;;;4.13;;
44516;SDS011;30223;17.182;-96.766;2023-04-03T04:35:43;7.10;;;5.45;;
44516;SDS011;30223;17.182;-96.766;2023-04-03T04:38:09;13.82;;;4.82;;
44516;SDS011;30223;17.182;-96.766;2023-04-03T04:40:36;6.10;;;4.90;;
44516;SDS011;30223;17.182;-96.766;2023-04-03T04:43:03;6.45;;;5.18;;
44516;SDS011;30223;17.182;-96.766;2023-04-03T04:45:30;7.93;;;4.43;;
44516;SDS011;30223;17.182;-96.766;2023-04-03T04:47:57;5.82;;;4.25;;
44516;SDS011;30223;17.182;-96.766;2023-04-03T04:50:24;7.25;;;4.82;;
44516;SDS011;30223;17.182;-96.766;2023-04-03T04:52:50;6.32;;;5.03;;
44516;SDS011;30223;17.182;-96.766;2023-04-03T04:55:17;7.13;;;4.93;;
44516;SDS011;30223;17.182;-96.766;2023-04-03T04:57:44;9.68;;;5.38;;
44516;SDS011;30223;17.182;-96.766;2023-04-03T05:00:11;8.57;;;5.22;;
44516;SDS011;30223;17.182;-96.766;2023-04-03T05:02:38;6.75;;;4.75;;
44516;SDS011;30223;17.182;-96.766;2023-04-03T05:05:05;6.25;;;4.80;;
44516;SDS011;30223;17.182;-96.766;2023-04-03T05:07:32;11.10;;;5.28;;
44516;SDS011;30223;17.182;-96.766;2023-04-03T05:10:01;8.77;;;6.13;;
44516;SDS011;30223;17.182;-96.766;2023-04-03T05:12:29;11.50;;;4.25;;
44516;SDS011;30223;17.182;-96.766;2023-04-03T05:14:55;8.65;;;5.18;;
44516;SDS011;30223;17.182;-96.766;2023-04-03T05:17:22;7.15;;;5.28;;
44516;SDS011;30223;17.182;-96.766;2023-04-03T05:19:49;7.25;;;5.03;;
44516;SDS011;30223;17.182;-96.766;2023-04-03T05:22:15;7.72;;;5.38;;
44516;SDS011;30223;17.182;-96.766;2023-04-03T05:24:42;9.68;;;5.30;;
44516;SDS011;30223;17.182;-96.766;2023-04-03T05:27:09;8.32;;;4.40;;
44516;SDS011;30223;17.182;-96.766;2023-04-03T05:29:36;7.63;;;5.07;;
44516;SDS011;30223;17.182;-96.766;2023-04-03T05:32:03;6.80;;;5.68;;
44516;SDS011;30223;17.182;-96.766;2023-04-03T05:34:30;6.13;;;4.72;;
44516;SDS011;30223;17.182;-96.766;2023-04-03T05:36:56;14.73;;;5.35;;
44516;SDS011;30223;17.182;-96.766;2023-04-03T05:39:23;6.88;;;4.97;;
44516;SDS011;30223;17.182;-96.766;2023-04-03T05:41:50;10.32;;;4.65;;
44516;SDS011;30223;17.182;-96.766;2023-04-03T05:44:17;9.77;;;5.65;;
44516;SDS011;30223;17.182;-96.766;2023-04-03T05:46:44;6.40;;;5.15;;
44516;SDS011;30223;17.182;-96.766;2023-04-03T05:49:11;8.88;;;6.07;;
44516;SDS011;30223;17.182;-96.766;2023-04-03T05:51:38;6.93;;;5.78;;
44516;SDS011;30223;17.182;-96.766;2023-04-03T05:56:37;8.75;;;4.93;;
44516;SDS011;30223;17.182;-96.766;2023-04-03T05:59:04;16.10;;;5.80;;
44516;SDS011;30223;17.182;-96.766;2023-04-03T06:01:32;14.65;;;6.55;;
44516;SDS011;30223;17.182;-96.766;2023-04-03T06:03:59;6.07;;;4.68;;
44516;SDS011;30223;17.182;-96.766;2023-04-03T06:06:26;12.35;;;5.10;;
44516;SDS011;30223;17.182;-96.766;2023-04-03T06:09:17;17.15;;;7.60;;
44516;SDS011;30223;17.182;-96.766;2023-04-03T06:11:45;6.82;;;4.95;;
44516;SDS011;30223;17.182;-96.766;2023-04-03T06:14:12;11.88;;;5.40;;
44516;SDS011;30223;17.182;-96.766;2023-04-03T06:16:39;10.13;;;5.38;;
44516;SDS011;30223;17.182;-96.766;2023-04-03T06:19:06;12.80;;;6.40;;
44516;SDS011;30223;17.182;-96.766;2023-04-03T06:21:34;13.30;;;5.15;;
44516;SDS011;30223;17.182;-96.766;2023-04-03T06:24:03;11.15;;;6.38;;
44516;SDS011;30223;17.182;-96.766;2023-04-03T06:26:31;8.98;;;5.72;;
44516;SDS011;30223;17.182;-96.766;2023-04-03T06:28:58;10.90;;;6.95;;
44516;SDS011;30223;17.182;-96.766;2023-04-03T06:31:25;7.63;;;5.18;;
44516;SDS011;30223;17.182;-96.766;2023-04-03T06:33:52;7.68;;;4.85;;
44516;SDS011;30223;17.182;-96.766;2023-04-03T06:36:19;10.02;;;5.80;;
44516;SDS011;30223;17.182;-96.766;2023-04-03T06:38:46;8.73;;;5.78;;
44516;SDS011;30223;17.182;-96.766;2023-04-03T06:41:13;9.70;;;5.15;;
44516;SDS011;30223;17.182;-96.766;2023-04-03T06:43:42;7.90;;;4.80;;
44516;SDS011;30223;17.182;-96.766;2023-04-03T06:46:13;7.35;;;4.85;;
44516;SDS011;30223;17.182;-96.766;2023-04-03T06:48:44;10.45;;;4.47;;
44516;SDS011;30223;17.182;-96.766;2023-04-03T06:51:22;10.50;;;4.65;;
44516;SDS011;30223;17.182;-96.766;2023-04-03T06:53:51;9.45;;;4.28;;
44516;SDS011;30223;17.182;-96.766;2023-04-03T06:56:19;8.68;;;5.28;;
44516;SDS011;30223;17.182;-96.766;2023-04-03T06:58:46;8.50;;;5.18;;
44516;SDS011;30223;17.182;-96.766;2023-04-03T07:01:17;10.07;;;5.55;;
44516;SDS011;30223;17.182;-96.766;2023-04-03T07:03:47;10.45;;;5.20;;
44516;SDS011;30223;17.182;-96.766;2023-04-03T07:06:15;10.15;;;4.95;;
44516;SDS011;30223;17.182;-96.766;2023-04-03T07:08:42;9.95;;;4.30;;
44516;SDS011;30223;17.182;-96.766;2023-04-03T07:11:10;7.65;;;5.20;;
44516;SDS011;30223;17.182;-96.766;2023-04-03T07:13:37;5.18;;;4.40;;
44516;SDS011;30223;17.182;-96.766;2023-04-03T07:16:04;7.10;;;4.90;;
44516;SDS011;30223;17.182;-96.766;2023-04-03T07:18:32;6.32;;;4.35;;
44516;SDS011;30223;17.182;-96.766;2023-04-03T07:20:59;6.90;;;4.35;;
44516;SDS011;30223;17.182;-96.766;2023-04-03T07:23:26;9.30;;;5.18;;
44516;SDS011;30223;17.182;-96.766;2023-04-03T07:25:53;5.13;;;4.20;;
44516;SDS011;30223;17.182;-96.766;2023-04-03T07:28:20;7.88;;;4.82;;
44516;SDS011;30223;17.182;-96.766;2023-04-03T07:30:49;5.63;;;4.00;;
44516;SDS011;30223;17.182;-96.766;2023-04-03T07:33:18;5.97;;;4.25;;
44516;SDS011;30223;17.182;-96.766;2023-04-03T07:35:46;8.15;;;4.63;;
44516;SDS011;30223;17.182;-96.766;2023-04-03T07:38:13;5.78;;;4.47;;
44516;SDS011;30223;17.182;-96.766;2023-04-03T07:40:45;6.75;;;4.30;;
44516;SDS011;30223;17.182;-96.766;2023-04-03T07:43:13;5.03;;;4.07;;
44516;SDS011;30223;17.182;-96.766;2023-04-03T07:45:40;5.93;;;3.53;;
44516;SDS011;30223;17.182;-96.766;2023-04-03T07:48:08;5.15;;;4.22;;
44516;SDS011;30223;17.182;-96.766;2023-04-03T07:50:36;5.78;;;3.92;;
44516;SDS011;30223;17.182;-96.766;2023-04-03T07:53:05;5.55;;;4.20;;
44516;SDS011;30223;17.182;-96.766;2023-04-03T07:55:33;5.78;;;4.13;;
44516;SDS011;30223;17.182;-96.766;2023-04-03T07:58:02;6.47;;;4.15;;
44516;SDS011;30223;17.182;-96.766;2023-04-03T08:00:30;5.72;;;4.07;;
44516;SDS011;30223;17.182;-96.766;2023-04-03T08:02:56;5.18;;;3.55;;
44516;SDS011;30223;17.182;-96.766;2023-04-03T08:05:23;5.53;;;4.63;;
44516;SDS011;30223;17.182;-96.766;2023-04-03T08:07:50;6.78;;;5.07;;
44516;SDS011;30223;17.182;-96.766;2023-04-03T08:10:17;7.15;;;4.00;;
44516;SDS011;30223;17.182;-96.766;2023-04-03T08:12:45;8.70;;;5.85;;
44516;SDS011;30223;17.182;-96.766;2023-04-03T08:15:13;5.90;;;4.53;;
44516;SDS011;30223;17.182;-96.766;2023-04-03T08:17:41;5.93;;;3.97;;
44516;SDS011;30223;17.182;-96.766;2023-04-03T08:20:09;4.78;;;3.90;;
44516;SDS011;30223;17.182;-96.766;2023-04-03T08:22:36;5.65;;;4.07;;
44516;SDS011;30223;17.182;-96.766;2023-04-03T08:25:03;7.00;;;4.03;;
44516;SDS011;30223;17.182;-96.766;2023-04-03T08:27:29;7.05;;;3.92;;
44516;SDS011;30223;17.182;-96.766;2023-04-03T08:29:56;7.82;;;4.68;;
44516;SDS011;30223;17.182;-96.766;2023-04-03T08:32:23;6.63;;;4.53;;
44516;SDS011;30223;17.182;-96.766;2023-04-03T08:34:50;7.05;;;4.65;;
44516;SDS011;30223;17.182;-96.766;2023-04-03T08:37:16;6.82;;;4.07;;
44516;SDS011;30223;17.182;-96.766;2023-04-03T08:39:44;4.72;;;4.03;;
44516;SDS011;30223;17.182;-96.766;2023-04-03T08:45:08;4.68;;;4.25;;
44516;SDS011;30223;17.182;-96.766;2023-04-03T08:50:17;4.97;;;3.85;;
44516;SDS011;30223;17.182;-96.766;2023-04-03T08:52:48;5.78;;;3.50;;
44516;SDS011;30223;17.182;-96.766;2023-04-03T08:58:12;4.78;;;3.50;;
44516;SDS011;30223;17.182;-96.766;2023-04-03T09:03:22;9.23;;;4.40;;
44516;SDS011;30223;17.182;-96.766;2023-04-03T09:05:51;4.32;;;3.10;;
44516;SDS011;30223;17.182;-96.766;2023-04-03T09:10:58;5.50;;;3.83;;
44516;SDS011;30223;17.182;-96.766;2023-04-03T09:22:16;4.50;;;3.63;;
44516;SDS011;30223;17.182;-96.766;2023-04-03T09:25:35;6.05;;;3.67;;
44516;SDS011;30223;17.182;-96.766;2023-04-03T09:27:38;4.82;;;3.92;;
44516;SDS011;30223;17.182;-96.766;2023-04-03T09:30:05;4.95;;;3.75;;
44516;SDS011;30223;17.182;-96.766;2023-04-03T09:32:38;6.63;;;4.00;;
44516;SDS011;30223;17.182;-96.766;2023-04-03T09:35:16;5.35;;;3.33;;
44516;SDS011;30223;17.182;-96.766;2023-04-03T09:37:44;6.05;;;3.92;;
44516;SDS011;30223;17.182;-96.766;2023-04-03T09:42:58;6.53;;;3.88;;
44516;SDS011;30223;17.182;-96.766;2023-04-03T09:45:27;5.68;;;4.13;;
44516;SDS011;30223;17.182;-96.766;2023-04-03T09:48:19;3.65;;;3.30;;
44516;SDS011;30223;17.182;-96.766;2023-04-03T09:58:49;5.55;;;3.50;;
44516;SDS011;30223;17.182;-96.766;2023-04-03T10:01:22;5.55;;;3.85;;
44516;SDS011;30223;17.182;-96.766;2023-04-03T10:04:09;4.65;;;3.78;;
44516;SDS011;30223;17.182;-96.766;2023-04-03T10:06:42;6.37;;;4.37;;
44516;SDS011;30223;17.182;-96.766;2023-04-03T10:09:18;5.82;;;3.78;;
44516;SDS011;30223;17.182;-96.766;2023-04-03T10:14:37;6.55;;;4.70;;
44516;SDS011;30223;17.182;-96.766;2023-04-03T10:22:59;4.90;;;3.22;;
44516;SDS011;30223;17.182;-96.766;2023-04-03T10:31:14;5.93;;;4.15;;
44516;SDS011;30223;17.182;-96.766;2023-04-03T10:34:04;4.70;;;3.42;;
44516;SDS011;30223;17.182;-96.766;2023-04-03T10:36:54;5.07;;;3.78;;
44516;SDS011;30223;17.182;-96.766;2023-04-03T10:39:46;4.47;;;3.33;;
44516;SDS011;30223;17.182;-96.766;2023-04-03T10:42:39;6.32;;;4.53;;
44516;SDS011;30223;17.182;-96.766;2023-04-03T10:56:56;6.38;;;3.95;;
44516;SDS011;30223;17.182;-96.766;2023-04-03T10:59:28;5.07;;;4.10;;
44516;SDS011;30223;17.182;-96.766;2023-04-03T11:04:54;4.97;;;3.30;;
44516;SDS011;30223;17.182;-96.766;2023-04-03T11:07:42;5.45;;;3.47;;
44516;SDS011;30223;17.182;-96.766;2023-04-03T11:10:14;4.38;;;3.63;;
44516;SDS011;30223;17.182;-96.766;2023-04-03T11:12:52;4.53;;;3.47;;
44516;SDS011;30223;17.182;-96.766;2023-04-03T11:15:50;6.43;;;4.20;;
44516;SDS011;30223;17.182;-96.766;2023-04-03T11:18:54;3.92;;;3.45;;
44516;SDS011;30223;17.182;-96.766;2023-04-03T11:21:42;5.15;;;3.78;;
44516;SDS011;30223;17.182;-96.766;2023-04-03T11:24:20;3.63;;;3.13;;
44516;SDS011;30223;17.182;-96.766;2023-04-03T11:26:53;4.50;;;3.28;;
44516;SDS011;30223;17.182;-96.766;2023-04-03T11:29:26;5.32;;;3.60;;
44516;SDS011;30223;17.182;-96.766;2023-04-03T11:35:04;5.35;;;4.20;;
44516;SDS011;30223;17.182;-96.766;2023-04-03T11:40:47;6.35;;;3.65;;
44516;SDS011;30223;17.182;-96.766;2023-04-03T11:43:06;5.93;;;4.20;;
44516;SDS011;30223;17.182;-96.766;2023-04-03T11:45:53;4.72;;;3.33;;
44516;SDS011;30223;17.182;-96.766;2023-04-03T11:50:59;4.82;;;3.75;;
44516;SDS011;30223;17.182;-96.766;2023-04-03T11:53:36;5.78;;;3.45;;
44516;SDS011;30223;17.182;-96.766;2023-04-03T11:56:26;7.43;;;4.00;;
44516;SDS011;30223;17.182;-96.766;2023-04-03T12:01:57;4.78;;;4.00;;
44516;SDS011;30223;17.182;-96.766;2023-04-03T12:04:24;4.50;;;3.13;;
44516;SDS011;30223;17.182;-96.766;2023-04-03T12:09:58;4.95;;;3.53;;
44516;SDS011;30223;17.182;-96.766;2023-04-03T12:12:28;5.05;;;4.22;;
44516;SDS011;30223;17.182;-96.766;2023-04-03T12:27:38;5.65;;;3.63;;
44516;SDS011;30223;17.182;-96.766;2023-04-03T12:29:51;6.28;;;3.85;;
44516;SDS011;30223;17.182;-96.766;2023-04-03T12:40:51;7.22;;;3.83;;
44516;SDS011;30223;17.182;-96.766;2023-04-03T12:46:22;5.55;;;3.55;;
44516;SDS011;30223;17.182;-96.766;2023-04-03T12:48:53;5.68;;;3.60;;
44516;SDS011;30223;17.182;-96.766;2023-04-03T12:51:38;6.10;;;3.15;;
44516;SDS011;30223;17.182;-96.766;2023-04-03T12:57:18;5.35;;;3.40;;
44516;SDS011;30223;17.182;-96.766;2023-04-03T12:59:52;3.83;;;3.33;;
44516;SDS011;30223;17.182;-96.766;2023-04-03T13:02:21;7.88;;;3.10;;
44516;SDS011;30223;17.182;-96.766;2023-04-03T13:05:06;4.93;;;4.15;;
44516;SDS011;30223;17.182;-96.766;2023-04-03T13:07:36;4.25;;;3.22;;
44516;SDS011;30223;17.182;-96.766;2023-04-03T13:12:44;4.95;;;3.55;;
44516;SDS011;30223;17.182;-96.766;2023-04-03T13:15:44;4.95;;;3.70;;
44516;SDS011;30223;17.182;-96.766;2023-04-03T13:21:17;6.65;;;3.58;;
44516;SDS011;30223;17.182;-96.766;2023-04-03T13:23:49;4.63;;;3.53;;
44516;SDS011;30223;17.182;-96.766;2023-04-03T13:26:18;4.93;;;3.63;;
44516;SDS011;30223;17.182;-96.766;2023-04-03T13:28:47;6.63;;;3.47;;
44516;SDS011;30223;17.182;-96.766;2023-04-03T13:31:18;6.80;;;3.78;;
44516;SDS011;30223;17.182;-96.766;2023-04-03T13:33:55;3.83;;;3.35;;
44516;SDS011;30223;17.182;-96.766;2023-04-03T13:36:23;4.70;;;3.55;;
44516;SDS011;30223;17.182;-96.766;2023-04-03T13:39:00;5.60;;;3.72;;
44516;SDS011;30223;17.182;-96.766;2023-04-03T13:41:34;6.55;;;3.53;;
44516;SDS011;30223;17.182;-96.766;2023-04-03T13:46:51;7.53;;;3.97;;
44516;SDS011;30223;17.182;-96.766;2023-04-03T13:52:24;8.43;;;4.15;;
44516;SDS011;30223;17.182;-96.766;2023-04-03T13:54:58;7.38;;;4.25;;
44516;SDS011;30223;17.182;-96.766;2023-04-03T13:57:27;6.38;;;3.53;;
44516;SDS011;30223;17.182;-96.766;2023-04-03T13:59:54;4.95;;;2.95;;
44516;SDS011;30223;17.182;-96.766;2023-04-03T14:02:22;5.22;;;3.53;;
44516;SDS011;30223;17.182;-96.766;2023-04-03T14:05:00;4.40;;;3.28;;
44516;SDS011;30223;17.182;-96.766;2023-04-03T14:07:29;5.20;;;4.03;;
44516;SDS011;30223;17.182;-96.766;2023-04-03T14:09:56;7.72;;;3.92;;
44516;SDS011;30223;17.182;-96.766;2023-04-03T14:12:27;4.65;;;3.30;;
44516;SDS011;30223;17.182;-96.766;2023-04-03T14:15:02;9.57;;;4.30;;
44516;SDS011;30223;17.182;-96.766;2023-04-03T14:17:31;4.68;;;4.22;;
44516;SDS011;30223;17.182;-96.766;2023-04-03T14:19:58;5.85;;;3.70;;
44516;SDS011;30223;17.182;-96.766;2023-04-03T14:22:27;7.67;;;3.77;;
44516;SDS011;30223;17.182;-96.766;2023-04-03T14:24:56;5.07;;;2.35;;
44516;SDS011;30223;17.182;-96.766;2023-04-03T14:27:28;7.80;;;3.72;;
44516;SDS011;30223;17.182;-96.766;2023-04-03T14:30:07;4.63;;;3.72;;
44516;SDS011;30223;17.182;-96.766;2023-04-03T14:32:42;5.53;;;3.75;;
44516;SDS011;30223;17.182;-96.766;2023-04-03T14:35:09;4.90;;;3.85;;
44516;SDS011;30223;17.182;-96.766;2023-04-03T14:37:36;5.65;;;3.50;;
44516;SDS011;30223;17.182;-96.766;2023-04-03T14:40:03;7.40;;;5.07;;
44516;SDS011;30223;17.182;-96.766;2023-04-03T14:42:32;5.95;;;3.92;;
44516;SDS011;30223;17.182;-96.766;2023-04-03T14:45:02;4.75;;;3.47;;
44516;SDS011;30223;17.182;-96.766;2023-04-03T14:47:31;6.60;;;3.28;;
44516;SDS011;30223;17.182;-96.766;2023-04-03T14:49:59;6.00;;;4.00;;
44516;SDS011;30223;17.182;-96.766;2023-04-03T14:52:31;5.65;;;4.40;;
44516;SDS011;30223;17.182;-96.766;2023-04-03T14:55:00;4.47;;;3.65;;
44516;SDS011;30223;17.182;-96.766;2023-04-03T14:57:28;3.67;;;3.13;;
44516;SDS011;30223;17.182;-96.766;2023-04-03T14:59:55;6.07;;;3.55;;
44516;SDS011;30223;17.182;-96.766;2023-04-03T15:02:24;5.85;;;4.13;;
44516;SDS011;30223;17.182;-96.766;2023-04-03T15:04:54;6.07;;;4.18;;
44516;SDS011;30223;17.182;-96.766;2023-04-03T15:07:22;5.07;;;4.57;;
44516;SDS011;30223;17.182;-96.766;2023-04-03T15:09:50;5.28;;;3.92;;
44516;SDS011;30223;17.182;-96.766;2023-04-03T15:12:17;6.28;;;4.50;;
44516;SDS011;30223;17.182;-96.766;2023-04-03T15:14:43;5.22;;;3.85;;
44516;SDS011;30223;17.182;-96.766;2023-04-03T15:17:13;7.70;;;4.45;;
44516;SDS011;30223;17.182;-96.766;2023-04-03T15:19:42;4.75;;;3.22;;
44516;SDS011;30223;17.182;-96.766;2023-04-03T15:22:18;5.60;;;3.55;;
44516;SDS011;30223;17.182;-96.766;2023-04-03T15:24:45;5.75;;;4.43;;
44516;SDS011;30223;17.182;-96.766;2023-04-03T15:27:12;7.93;;;3.65;;
44516;SDS011;30223;17.182;-96.766;2023-04-03T15:29:41;5.45;;;4.00;;
44516;SDS011;30223;17.182;-96.766;2023-04-03T15:32:09;9.90;;;5.57;;
44516;SDS011;30223;17.182;-96.766;2023-04-03T15:34:37;7.43;;;4.38;;
44516;SDS011;30223;17.182;-96.766;2023-04-03T15:37:04;7.68;;;5.18;;
44516;SDS011;30223;17.182;-96.766;2023-04-03T15:39:31;8.13;;;5.75;;
44516;SDS011;30223;17.182;-96.766;2023-04-03T15:41:58;7.72;;;5.28;;
44516;SDS011;30223;17.182;-96.766;2023-04-03T15:44:31;10.02;;;5.50;;
44516;SDS011;30223;17.182;-96.766;2023-04-03T15:47:02;6.38;;;4.72;;
44516;SDS011;30223;17.182;-96.766;2023-04-03T15:49:29;8.80;;;4.90;;
44516;SDS011;30223;17.182;-96.766;2023-04-03T15:51:58;6.93;;;5.25;;
44516;SDS011;30223;17.182;-96.766;2023-04-03T15:54:25;9.43;;;4.80;;
44516;SDS011;30223;17.182;-96.766;2023-04-03T15:56:52;10.45;;;6.13;;
44516;SDS011;30223;17.182;-96.766;2023-04-03T15:59:18;8.07;;;5.18;;
44516;SDS011;30223;17.182;-96.766;2023-04-03T16:01:45;6.40;;;5.43;;
44516;SDS011;30223;17.182;-96.766;2023-04-03T16:04:12;7.68;;;5.65;;
44516;SDS011;30223;17.182;-96.766;2023-04-03T16:06:39;6.57;;;5.15;;
44516;SDS011;30223;17.182;-96.766;2023-04-03T16:09:06;9.38;;;6.40;;
44516;SDS011;30223;17.182;-96.766;2023-04-03T16:11:33;9.70;;;5.80;;
44516;SDS011;30223;17.182;-96.766;2023-04-03T16:14:05;7.72;;;5.65;;
44516;SDS011;30223;17.182;-96.766;2023-04-03T16:16:33;7.28;;;5.60;;
44516;SDS011;30223;17.182;-96.766;2023-04-03T16:19:00;9.77;;;5.45;;
44516;SDS011;30223;17.182;-96.766;2023-04-03T16:21:28;8.57;;;5.63;;
44516;SDS011;30223;17.182;-96.766;2023-04-03T16:23:56;9.43;;;6.45;;
44516;SDS011;30223;17.182;-96.766;2023-04-03T16:26:24;9.95;;;6.10;;
44516;SDS011;30223;17.182;-96.766;2023-04-03T16:28:51;6.82;;;5.60;;
44516;SDS011;30223;17.182;-96.766;2023-04-03T16:31:19;10.55;;;5.57;;
44516;SDS011;30223;17.182;-96.766;2023-04-03T16:33:46;9.20;;;5.95;;
44516;SDS011;30223;17.182;-96.766;2023-04-03T16:36:12;8.45;;;5.80;;
44516;SDS011;30223;17.182;-96.766;2023-04-03T16:38:39;10.68;;;7.22;;
44516;SDS011;30223;17.182;-96.766;2023-04-03T16:41:06;10.55;;;6.03;;
44516;SDS011;30223;17.182;-96.766;2023-04-03T16:43:33;10.07;;;6.55;;
44516;SDS011;30223;17.182;-96.766;2023-04-03T16:46:01;9.32;;;7.07;;